Weather at Addis Ababa Bole International Airport

Public forecast

Using degrees Celsius for public forecast. Weather courtesy of forecast.io.

Current aviation weather report (METAR) for Addis Ababa Bole International Airport

Report is more than 6 hours old.

2022/11/14 15:00 (retrieved 2 years ago)

HAAB 141500Z 09008KT 9999 FEW025 20/09Q1026 NOSIG

Aviation forecast (TAF) for Addis Ababa Bole International Airport

Forecast is more than 12 hours old.

2023/02/22 18:24 (retrieved 1 year ago)

TAF TAF HAAB 221530Z 2218/2324 VRB04KT 9999 FEW020 FEW070